Pagrindinis puslapis
METAR-TAF:

METAR-TAF

Oro uostai :

Senendedžas, Iranas

platuma: 35-20N, ilguma: 047-00E, Aukštis: 1373 m

Dabartinis oras

Ataskaita buvo paskelbta 11 valandos ir 20 minutes, ne 14:00 UTC
Ramus vėjas
Temperatūra 13°C
Drėgmė 58%
Slėgis 1016 hPa
Matomumas: 8000 m
Išsisklaidę debesys ne aukštis 4000 ft
Su prošvaistėmis ne aukštis 7000 ft
Su prošvaistėmis ne aukštis 20000 ft
lietus

METAR: OICS 241400Z 00000KT 8000 -RA SCT040 BKN070 BKN200 13/05 Q1015 A3000

Laikas: 04:50 (01:20 UTC)


TAF: trūkstamas

Orai ataskaitas ir orų prognozės (METAR, TAF).

turimą stotys yra geltonos ir raudonos taškus žemėlapyje.

Perkelti pele per norėdami pamatyti stoties vardą.

Tada spustelėkite, norėdami matyti oro stebėjimo ir prognozės.

Norėdami pakeisti žemėlapį: spustelėkite ant žalios mygtukų su juodo kryžiaus žemyn,; žalią mygtuką su brūkšneliu, jei norite nutolinti; arba žalių rodyklių gretimoms žemėlapius.


METAR-TAF: